Log in Register

Login to your account

Username *
Password *
Remember Me

Create an account

Fields marked with an asterisk (*) are required.
Name *
Username *
Password *
Verify password *
Email *
Verify email *
Captcha *

Please enter the email address associated with your User account. Your username will be emailed to the email address on file.

Nous contacter

 Téléphone : +33 (0)4 79 54 41 81

Coordonnées détaillées et accès : cliquez ici

facebook 770688 960 720  logo instagram large

[source: ADDS]
METAR / TAF
LFLB 260200Z AUTO VRB03KT 9999 FEW074 14/08 Q1023 =

SR / SS: 03:54 / 19:12 UTC (Lever/Coucher du soleil le 2022-05-26)
JSN Boot template designed by JoomlaShine.com